Time;durP1;ratioP1;P1;durP2;ratioP2;P2;SDS_P1;SDS_P2;PMS_P1;PMS_P2;Temp;Humidity;BMP_temperature;BMP_pressure;BME280_temperature;BME280_humidity;BME280_pressure;Samples;Min_cycle;Max_cycle;Signal;HPM_P1;HPM_P2
2022/10/03 00:00:19;;;;;;;17.27;6.95;;;9.70;99.90;;;;;;4970336;28;20027;-58
2022/10/03 00:02:50;;;;;;;18.30;6.40;;;9.70;99.90;;;;;;4970451;28;20037;-58
2022/10/03 00:05:55;;;;;;;15.23;5.50;;;9.70;99.90;;;;;;4974044;28;20034;-59
2022/10/03 00:08:27;;;;;;;20.70;5.13;;;9.70;99.90;;;;;;4974253;28;20660;-60
2022/10/03 00:11:11;;;;;;;15.52;5.78;;;9.60;99.90;;;;;;4974231;28;20106;-59
2022/10/03 00:13:52;;;;;;;20.10;6.03;;;9.70;99.90;;;;;;4974166;28;20031;-59
2022/10/03 00:16:20;;;;;;;19.17;6.32;;;9.70;99.90;;;;;;4972743;28;20126;-59
2022/10/03 00:19:06;;;;;;;20.02;7.10;;;9.70;99.90;;;;;;4973961;28;20023;-59
2022/10/03 00:21:46;;;;;;;18.45;6.50;;;9.70;99.90;;;;;;4974068;28;20321;-59
2022/10/03 00:24:33;;;;;;;28.13;11.70;;;9.70;99.90;;;;;;4974108;28;20027;-59
2022/10/03 00:27:13;;;;;;;99.72;64.82;;;9.70;99.90;;;;;;4973577;28;20047;-59
2022/10/03 00:29:55;;;;;;;70.00;45.08;;;9.70;99.90;;;;;;4973815;28;20027;-59
2022/10/03 00:32:49;;;;;;;55.65;40.45;;;9.70;99.90;;;;;;4973881;28;20101;-59
2022/10/03 00:35:40;;;;;;;19.27;7.82;;;9.80;99.90;;;;;;4973805;28;20039;-60
2022/10/03 00:38:15;;;;;;;18.13;5.65;;;9.80;99.90;;;;;;4973653;28;20113;-59
2022/10/03 00:41:08;;;;;;;17.13;7.00;;;9.80;99.90;;;;;;4973465;28;20035;-58
2022/10/03 00:44:00;;;;;;;15.55;5.43;;;9.80;99.90;;;;;;4985899;28;20031;-58
2022/10/03 00:46:57;;;;;;;13.48;5.13;;;9.90;99.90;;;;;;4942238;28;20062;-59
2022/10/03 00:49:38;;;;;;;17.02;5.35;;;9.90;99.90;;;;;;4971802;28;20442;-58
2022/10/03 00:52:28;;;;;;;15.80;4.93;;;9.90;99.90;;;;;;4972264;28;20030;-58
2022/10/03 00:55:26;;;;;;;19.75;5.10;;;9.90;99.90;;;;;;4970823;28;20035;-58
2022/10/03 00:58:13;;;;;;;15.68;5.47;;;9.90;99.90;;;;;;4972296;28;20049;-58
2022/10/03 01:00:45;;;;;;;12.75;5.00;;;10.00;99.90;;;;;;4986374;28;20023;-58
2022/10/03 01:03:31;;;;;;;14.70;4.90;;;10.00;99.90;;;;;;4970391;28;20038;-58
2022/10/03 01:06:37;;;;;;;20.42;5.05;;;10.00;99.90;;;;;;4985899;28;20121;-58
2022/10/03 01:09:30;;;;;;;21.35;6.25;;;10.00;99.90;;;;;;4895642;29;20043;-57
2022/10/03 01:12:20;;;;;;;13.27;5.32;;;10.10;99.90;;;;;;4984595;28;20027;-57
2022/10/03 01:15:02;;;;;;;13.18;5.25;;;10.10;99.90;;;;;;4986262;28;20023;-57
2022/10/03 01:17:47;;;;;;;22.23;6.75;;;10.10;99.90;;;;;;4972171;28;20098;-58
2022/10/03 01:20:25;;;;;;;15.23;5.57;;;10.10;99.90;;;;;;4970262;28;20117;-58
2022/10/03 01:23:00;;;;;;;20.95;5.55;;;10.10;99.90;;;;;;4970325;28;20022;-58
2022/10/03 01:25:38;;;;;;;14.60;5.30;;;10.10;99.90;;;;;;4969291;28;20022;-58
2022/10/03 01:30:56;;;;;;;15.18;5.38;;;10.10;99.90;;;;;;4973141;28;20638;-58
2022/10/03 01:33:36;;;;;;;16.20;6.13;;;10.10;99.90;;;;;;4973116;28;20549;-58
2022/10/03 01:36:23;;;;;;;8.45;4.07;;;10.20;99.90;;;;;;4972953;28;20772;-58
2022/10/03 01:38:58;;;;;;;11.93;4.20;;;10.20;99.90;;;;;;4973064;28;20127;-58
2022/10/03 01:41:32;;;;;;;15.90;4.78;;;10.10;99.90;;;;;;4973132;28;20027;-58
2022/10/03 01:44:30;;;;;;;13.55;4.05;;;10.20;99.90;;;;;;4973339;28;20058;-58
2022/10/03 01:47:05;;;;;;;13.20;4.65;;;10.20;99.90;;;;;;4972881;28;20046;-57
2022/10/03 01:49:44;;;;;;;11.88;4.30;;;10.20;99.90;;;;;;4972858;28;20038;-59
2022/10/03 01:52:35;;;;;;;17.05;4.30;;;10.20;99.90;;;;;;4972709;28;20039;-59
2022/10/03 01:55:06;;;;;;;18.65;4.68;;;10.30;99.90;;;;;;4972685;28;20054;-58
2022/10/03 01:57:56;;;;;;;17.45;4.97;;;10.20;99.90;;;;;;4972598;28;20042;-58
2022/10/03 02:00:24;;;;;;;15.07;4.07;;;10.30;99.90;;;;;;4972580;28;20037;-58
2022/10/03 02:03:24;;;;;;;19.35;4.72;;;10.30;99.90;;;;;;4972789;28;20035;-59
2022/10/03 02:05:57;;;;;;;;;;;10.30;99.90;;;;;;4973046;28;20143;-61
2022/10/03 02:08:57;;;;;;;11.15;4.22;;;10.30;99.90;;;;;;4972428;28;19914;-58
2022/10/03 02:11:43;;;;;;;14.27;4.00;;;10.30;99.90;;;;;;4972405;28;20426;-58
2022/10/03 02:14:23;;;;;;;14.57;4.55;;;10.30;99.90;;;;;;4971883;28;20042;-58
2022/10/03 02:16:58;;;;;;;13.75;4.53;;;10.30;99.90;;;;;;4972276;28;20023;-59
2022/10/03 02:19:33;;;;;;;17.30;4.40;;;10.30;99.90;;;;;;4972450;28;20117;-58
2022/10/03 02:21:59;;;;;;;12.55;4.78;;;10.30;99.90;;;;;;4954811;28;20027;-58
2022/10/03 02:24:56;;;;;;;9.80;4.32;;;10.30;99.90;;;;;;4972268;28;20037;-58
2022/10/03 02:27:57;;;;;;;11.55;4.15;;;10.30;99.90;;;;;;4970571;28;20035;-59
2022/10/03 02:31:05;;;;;;;16.75;4.75;;;10.30;99.90;;;;;;4921218;28;20046;-58
2022/10/03 02:33:31;;;;;;;16.50;5.00;;;10.40;99.90;;;;;;4971964;28;20023;-58
2022/10/03 02:36:19;;;;;;;25.85;15.57;;;10.40;99.90;;;;;;4972022;28;20117;-59
2022/10/03 02:39:22;;;;;;;51.40;37.60;;;10.40;99.90;;;;;;4971938;28;20038;-58
2022/10/03 02:42:16;;;;;;;20.40;7.47;;;10.40;99.90;;;;;;4954397;28;20038;-59
2022/10/03 02:44:59;;;;;;;22.42;5.50;;;10.50;99.90;;;;;;4972012;28;20066;-59
2022/10/03 02:47:49;;;;;;;13.13;4.85;;;10.40;99.90;;;;;;4971948;28;20030;-58
2022/10/03 02:50:36;;;;;;;15.85;5.05;;;10.40;99.90;;;;;;4971773;28;20024;-57
2022/10/03 02:53:40;;;;;;;12.45;5.65;;;10.50;99.90;;;;;;4971734;28;20475;-58
2022/10/03 02:56:59;;;;;;;16.80;5.50;;;10.50;99.90;;;;;;4874005;29;20120;-58
2022/10/03 02:59:41;;;;;;;11.20;4.93;;;10.40;99.90;;;;;;4871329;29;20041;-58
2022/10/03 03:02:30;;;;;;;8.68;4.07;;;10.50;99.90;;;;;;4965658;28;20049;-58
2022/10/03 03:05:35;;;;;;;13.05;4.57;;;10.50;99.90;;;;;;4926175;28;20042;-58
2022/10/03 03:08:42;;;;;;;16.85;5.00;;;10.50;99.90;;;;;;4971387;28;20090;-58
2022/10/03 03:11:46;;;;;;;14.13;5.28;;;10.50;99.90;;;;;;4873763;29;20510;-57
2022/10/03 03:14:17;;;;;;;15.77;5.30;;;10.50;99.90;;;;;;4873759;29;20041;-58
2022/10/03 03:17:13;;;;;;;16.92;6.28;;;10.50;99.90;;;;;;4935079;28;20062;-58
2022/10/03 03:19:54;;;;;;;21.10;5.38;;;10.60;99.90;;;;;;4971630;28;20054;-58
2022/10/03 03:22:31;;;;;;;22.20;5.53;;;10.50;99.90;;;;;;4971354;28;20023;-58
2022/10/03 03:25:15;;;;;;;19.42;6.05;;;10.60;99.90;;;;;;4985661;28;20034;-59
2022/10/03 03:28:10;;;;;;;23.40;5.82;;;10.60;99.90;;;;;;4970989;28;20050;-59
2022/10/03 03:31:06;;;;;;;16.33;5.22;;;10.60;99.90;;;;;;4971253;28;20039;-59
2022/10/03 03:34:09;;;;;;;20.77;5.43;;;10.60;99.90;;;;;;4971026;28;20474;-59
2022/10/03 03:36:42;;;;;;;14.18;5.07;;;10.60;99.90;;;;;;4970990;28;20054;-60
2022/10/03 03:39:26;;;;;;;14.82;5.32;;;10.60;99.90;;;;;;4985643;28;20022;-58
2022/10/03 03:42:21;;;;;;;18.65;5.53;;;10.60;99.90;;;;;;4970971;28;20713;-59
2022/10/03 03:45:01;;;;;;;19.05;6.05;;;10.60;99.90;;;;;;4971054;28;20033;-58
2022/10/03 03:47:42;;;;;;;15.50;5.63;;;10.60;99.90;;;;;;4971043;28;20050;-59
2022/10/03 03:50:21;;;;;;;19.15;5.15;;;10.60;99.90;;;;;;4970873;28;20031;-59
2022/10/03 03:53:14;;;;;;;12.85;4.38;;;10.60;99.90;;;;;;4971191;28;20026;-59
2022/10/03 03:56:01;;;;;;;15.32;5.85;;;10.60;99.90;;;;;;4970885;28;20086;-59
2022/10/03 03:58:36;;;;;;;17.38;4.82;;;10.60;99.90;;;;;;4985670;28;20508;-58
2022/10/03 04:01:02;;;;;;;18.10;5.40;;;10.60;99.90;;;;;;4970927;28;20031;-59
2022/10/03 04:03:59;;;;;;;19.92;6.13;;;10.60;99.90;;;;;;4970922;28;20023;-59
2022/10/03 04:06:40;;;;;;;22.02;5.90;;;10.50;99.90;;;;;;4970786;28;20514;-59
2022/10/03 04:09:30;;;;;;;21.77;5.15;;;10.50;99.90;;;;;;4970774;28;20035;-59
2022/10/03 04:12:23;;;;;;;14.38;4.70;;;10.50;99.90;;;;;;4953167;28;20026;-58
2022/10/03 04:14:55;;;;;;;10.75;4.72;;;10.50;99.90;;;;;;4970807;28;20037;-59
2022/10/03 04:20:19;;;;;;;18.10;5.20;;;10.50;99.90;;;;;;4970807;28;20053;-59
2022/10/03 04:23:18;;;;;;;16.83;5.78;;;10.50;99.90;;;;;;4970809;28;20030;-58
2022/10/03 04:25:59;;;;;;;16.13;5.22;;;10.50;99.90;;;;;;4953190;28;20030;-58
2022/10/03 04:28:52;;;;;;;19.27;5.15;;;10.50;99.90;;;;;;4931257;28;20131;-59
2022/10/03 04:31:28;;;;;;;13.25;4.60;;;10.40;99.90;;;;;;4932430;29;20028;-59
2022/10/03 04:34:23;;;;;;;18.88;5.50;;;10.40;99.90;;;;;;4932335;29;20806;-58
2022/10/03 04:37:13;;;;;;;15.45;5.45;;;10.40;99.90;;;;;;4932236;29;20036;-58
2022/10/03 04:40:11;;;;;;;19.95;6.43;;;10.50;99.90;;;;;;4932332;29;20051;-60
2022/10/03 04:42:58;;;;;;;19.42;5.82;;;10.50;99.90;;;;;;4932274;29;20479;-58
2022/10/03 04:45:32;;;;;;;15.68;5.20;;;10.50;99.90;;;;;;4932356;29;20036;-58
2022/10/03 04:48:17;;;;;;;15.25;5.43;;;10.50;99.90;;;;;;4932457;29;20040;-58
2022/10/03 04:51:19;;;;;;;19.38;5.28;;;10.40;99.90;;;;;;4933485;29;20035;-59
2022/10/03 04:54:15;;;;;;;12.45;4.65;;;10.40;99.90;;;;;;4925291;29;20040;-59
2022/10/03 04:56:52;;;;;;;14.00;4.82;;;10.40;99.90;;;;;;4934196;29;20030;-58
2022/10/03 04:59:20;;;;;;;12.18;4.38;;;10.40;99.90;;;;;;4935832;29;20035;-59
2022/10/03 05:02:05;;;;;;;15.45;5.65;;;10.40;99.90;;;;;;4935562;29;20079;-60
2022/10/03 05:05:01;;;;;;;15.10;4.90;;;10.40;99.90;;;;;;4933951;29;20032;-59
2022/10/03 05:07:41;;;;;;;11.43;4.63;;;10.40;99.90;;;;;;4934878;29;20626;-60
2022/10/03 05:10:29;;;;;;;16.45;5.55;;;10.30;99.90;;;;;;4933967;29;20380;-59
2022/10/03 05:13:15;;;;;;;16.33;4.78;;;10.30;99.90;;;;;;4934962;29;20032;-59
2022/10/03 05:15:51;;;;;;;12.93;5.13;;;10.30;99.90;;;;;;4933934;29;20502;-59
2022/10/03 05:18:34;;;;;;;16.75;4.88;;;10.30;99.90;;;;;;4933740;29;20572;-59
2022/10/03 05:21:14;;;;;;;19.23;4.82;;;10.20;99.90;;;;;;4935277;29;20063;-59
2022/10/03 05:24:14;;;;;;;11.07;3.63;;;10.20;99.90;;;;;;4934955;29;20051;-59
2022/10/03 05:27:02;;;;;;;19.08;5.07;;;10.20;99.90;;;;;;4943823;28;20098;-60
2022/10/03 05:29:40;;;;;;;9.02;4.18;;;10.20;99.90;;;;;;4973180;28;20045;-59
2022/10/03 05:32:11;;;;;;;14.48;3.88;;;10.20;99.90;;;;;;4973299;28;20088;-58
2022/10/03 05:34:46;;;;;;;11.82;3.60;;;10.20;99.90;;;;;;4973265;28;20065;-59
2022/10/03 05:37:11;;;;;;;16.83;4.22;;;10.10;99.90;;;;;;4977727;28;20027;-59
2022/10/03 05:39:57;;;;;;;15.90;3.67;;;10.10;99.90;;;;;;4992608;28;20080;-59
2022/10/03 05:42:23;;;;;;;8.45;3.33;;;10.20;99.90;;;;;;4992636;28;20034;-59
2022/10/03 05:45:29;;;;;;;8.57;3.08;;;10.20;99.90;;;;;;4992114;28;20593;-59
2022/10/03 05:48:13;;;;;;;10.55;3.63;;;10.10;99.90;;;;;;4992170;28;20100;-58
2022/10/03 05:51:12;;;;;;;16.65;4.15;;;10.10;99.90;;;;;;4992279;28;20489;-59
2022/10/03 05:54:15;;;;;;;20.37;4.10;;;10.10;99.90;;;;;;4992498;28;20045;-58
2022/10/03 05:56:59;;;;;;;17.05;4.78;;;10.10;99.90;;;;;;5007094;28;20815;-59
2022/10/03 05:59:25;;;;;;;18.92;4.20;;;10.10;99.90;;;;;;4989604;28;20029;-58
2022/10/03 06:02:00;;;;;;;14.57;4.63;;;10.10;99.90;;;;;;4972492;28;20034;-58
2022/10/03 06:04:41;;;;;;;12.80;4.47;;;10.20;99.90;;;;;;4954516;28;20400;-58
2022/10/03 06:07:14;;;;;;;17.77;4.30;;;10.20;99.90;;;;;;4969799;28;20045;-58
2022/10/03 06:10:03;;;;;;;17.40;4.80;;;10.20;99.90;;;;;;4971844;28;20492;-59
2022/10/03 06:13:03;;;;;;;11.35;3.25;;;10.20;99.90;;;;;;4985990;28;20035;-59
2022/10/03 06:15:36;;;;;;;11.02;3.22;;;10.20;99.90;;;;;;4971196;28;20065;-59
2022/10/03 06:18:23;;;;;;;11.07;4.15;;;10.20;99.90;;;;;;4970581;28;20023;-58
2022/10/03 06:21:04;;;;;;;14.48;3.45;;;10.20;99.90;;;;;;4970879;28;20615;-59
2022/10/03 06:23:51;;;;;;;12.32;3.92;;;10.30;99.90;;;;;;4968761;28;20050;-58
2022/10/03 06:26:54;;;;;;;18.42;4.45;;;10.30;99.90;;;;;;4968934;28;20023;-59
2022/10/03 06:29:37;;;;;;;16.73;3.80;;;10.30;99.90;;;;;;4971462;28;20070;-58
2022/10/03 06:32:24;;;;;;;12.38;3.72;;;10.30;99.90;;;;;;4971563;28;20050;-58
2022/10/03 06:35:21;;;;;;;15.60;3.53;;;10.30;99.90;;;;;;4969129;28;20081;-58
2022/10/03 06:38:07;;;;;;;11.55;3.85;;;10.40;99.90;;;;;;4970097;28;20027;-58
2022/10/03 06:41:01;;;;;;;13.52;3.60;;;10.40;99.90;;;;;;4971521;28;20577;-58
2022/10/03 06:43:44;;;;;;;10.38;3.70;;;10.40;99.90;;;;;;4984769;28;20745;-59
2022/10/03 06:46:34;;;;;;;13.38;3.50;;;10.40;99.90;;;;;;4970509;28;20027;-59
2022/10/03 06:49:26;;;;;;;13.18;3.88;;;10.40;99.90;;;;;;4970549;28;20551;-58
2022/10/03 06:52:01;;;;;;;10.70;3.55;;;10.50;99.90;;;;;;4971430;28;20093;-58
2022/10/03 06:55:03;;;;;;;12.23;3.08;;;10.50;99.90;;;;;;4970331;28;20114;-58
2022/10/03 06:57:53;;;;;;;14.57;3.25;;;10.50;99.90;;;;;;4971684;28;20527;-59
2022/10/03 07:00:51;;;;;;;10.40;3.03;;;10.50;99.90;;;;;;4971527;28;20054;-58
2022/10/03 07:03:38;;;;;;;10.00;2.78;;;10.60;99.90;;;;;;4955669;28;20147;-58
2022/10/03 07:06:42;;;;;;;10.95;3.10;;;10.70;99.90;;;;;;4971459;28;20054;-58
2022/10/03 07:09:38;;;;;;;12.25;2.72;;;10.70;99.90;;;;;;4970958;28;20080;-58
2022/10/03 07:12:22;;;;;;;11.20;3.13;;;10.80;99.90;;;;;;4969837;28;20034;-59
2022/10/03 07:15:13;;;;;;;11.90;3.20;;;10.80;99.90;;;;;;4969183;28;20031;-58
2022/10/03 07:18:07;;;;;;;12.10;3.83;;;10.80;99.90;;;;;;4969881;28;20082;-58
2022/10/03 07:21:00;;;;;;;13.63;3.50;;;10.80;99.90;;;;;;4969977;28;20430;-57
2022/10/03 07:23:47;;;;;;;16.40;3.35;;;10.80;99.90;;;;;;4969684;28;20026;-58
2022/10/03 07:26:57;;;;;;;19.65;4.97;;;10.90;99.90;;;;;;4970704;28;20374;-59
2022/10/03 07:30:16;;;;;;;13.25;3.58;;;10.90;99.90;;;;;;4970027;28;20050;-57
2022/10/03 07:32:44;;;;;;;13.27;3.47;;;10.90;99.90;;;;;;4925347;29;20484;-57
2022/10/03 07:41:37;;;;;;;10.35;2.78;;;11.00;99.90;;;;;;4969050;28;20089;-60
2022/10/03 07:44:21;;;;;;;7.63;2.90;;;10.90;99.90;;;;;;4969757;28;20078;-60
2022/10/03 07:47:09;;;;;;;7.45;2.22;;;10.80;99.90;;;;;;4968853;28;20431;-59
2022/10/03 07:50:12;;;;;;;9.50;2.50;;;10.80;99.90;;;;;;4969380;28;20062;-61
2022/10/03 07:53:03;;;;;;;9.13;2.45;;;10.80;99.90;;;;;;4968600;28;20041;-60
2022/10/03 07:55:29;;;;;;;12.35;2.47;;;11.00;99.90;;;;;;4970607;28;20045;-60
2022/10/03 07:58:25;;;;;;;8.23;2.58;;;11.10;99.90;;;;;;4970837;28;20414;-61
2022/10/03 08:01:09;;;;;;;11.27;4.78;;;11.10;99.90;;;;;;4970654;28;20131;-59
2022/10/03 08:03:56;;;;;;;11.07;3.83;;;11.10;99.90;;;;;;4970700;28;20386;-59
2022/10/03 08:06:37;;;;;;;13.15;3.28;;;11.10;99.90;;;;;;4970570;28;20106;-59
2022/10/03 08:09:25;;;;;;;10.40;3.40;;;11.00;99.90;;;;;;4970849;28;20517;-59
2022/10/03 08:12:14;;;;;;;10.82;3.30;;;11.10;99.90;;;;;;4970875;28;20026;-59
2022/10/03 08:14:51;;;;;;;7.03;2.83;;;11.20;99.90;;;;;;4969901;28;20027;-60
2022/10/03 08:17:32;;;;;;;11.68;4.05;;;11.20;99.90;;;;;;4967594;28;20019;-59
2022/10/03 08:20:06;;;;;;;8.90;2.63;;;11.30;99.90;;;;;;4969154;28;20549;-59
2022/10/03 08:22:59;;;;;;;9.25;2.63;;;11.30;99.90;;;;;;4969800;28;20030;-58
2022/10/03 08:25:56;;;;;;;15.35;3.75;;;11.40;99.90;;;;;;4971580;28;20023;-59
2022/10/03 08:28:21;;;;;;;10.77;2.97;;;11.40;99.90;;;;;;4972278;28;20375;-59
2022/10/03 08:30:56;;;;;;;10.48;2.90;;;11.40;99.90;;;;;;4973391;28;20109;-58
2022/10/03 08:33:43;;;;;;;11.60;2.65;;;11.50;99.90;;;;;;4971826;28;20049;-59
2022/10/03 08:36:24;;;;;;;10.43;2.88;;;11.50;99.90;;;;;;4973827;28;20030;-58
2022/10/03 08:39:01;;;;;;;8.65;2.97;;;11.50;99.90;;;;;;4974191;28;20035;-59
2022/10/03 08:41:41;;;;;;;5.00;2.33;;;11.60;99.90;;;;;;4974363;28;20027;-59
2022/10/03 08:44:39;;;;;;;12.60;2.78;;;11.60;99.90;;;;;;4974009;28;20122;-58
2022/10/03 08:47:17;;;;;;;10.18;2.25;;;11.60;99.90;;;;;;4956670;28;20042;-58
2022/10/03 08:49:45;;;;;;;12.10;3.33;;;11.50;99.90;;;;;;4974026;28;20031;-58
2022/10/03 08:52:23;;;;;;;8.15;2.47;;;11.50;99.90;;;;;;4973198;28;20042;-58
2022/10/03 08:55:27;;;;;;;7.78;2.03;;;11.60;99.90;;;;;;4972286;28;20027;-58
2022/10/03 08:58:18;;;;;;;8.13;2.53;;;11.60;99.90;;;;;;4966700;28;20640;-58
2022/10/03 09:01:17;;;;;;;3.78;1.77;;;11.70;99.90;;;;;;4973028;28;20030;-58
2022/10/03 09:04:18;;;;;;;5.57;1.77;;;11.80;99.90;;;;;;4973323;28;20034;-58
2022/10/03 09:06:46;;;;;;;6.20;2.20;;;11.80;99.90;;;;;;4936854;28;20035;-58
2022/10/03 09:10:06;;;;;;;5.10;1.60;;;11.90;99.90;;;;;;4973714;28;20034;-59
2022/10/03 09:12:51;;;;;;;5.90;2.28;;;11.80;99.90;;;;;;4972677;28;20035;-58
2022/10/03 09:15:23;;;;;;;7.63;2.88;;;11.80;99.90;;;;;;4971934;28;20110;-58
2022/10/03 09:18:13;;;;;;;6.07;2.33;;;11.70;99.90;;;;;;4980523;28;20027;-58
2022/10/03 09:21:05;;;;;;;6.88;2.65;;;11.60;99.90;;;;;;4970103;28;20030;-58
2022/10/03 09:23:37;;;;;;;10.02;4.20;;;11.40;99.90;;;;;;4969616;28;20097;-60
2022/10/03 09:26:34;;;;;;;8.52;3.00;;;11.40;99.90;;;;;;4972244;28;20037;-60
2022/10/03 09:29:34;;;;;;;9.32;3.80;;;11.40;99.90;;;;;;4970523;28;20060;-61
2022/10/03 09:32:22;;;;;;;6.05;2.97;;;11.30;99.90;;;;;;4970373;28;20019;-61
2022/10/03 09:35:06;;;;;;;8.57;3.17;;;11.20;99.90;;;;;;4971211;28;20118;-59
2022/10/03 09:37:53;;;;;;;6.28;2.47;;;11.20;99.90;;;;;;4970696;28;20030;-60
2022/10/03 09:40:39;;;;;;;6.63;3.20;;;11.20;99.90;;;;;;4970325;28;20085;-60
2022/10/03 09:43:23;;;;;;;7.95;2.58;;;11.10;99.90;;;;;;4970628;28;20033;-59
2022/10/03 09:46:25;;;;;;;6.22;2.83;;;11.20;99.90;;;;;;4970967;28;20512;-60
2022/10/03 09:49:27;;;;;;;6.05;2.40;;;11.20;99.90;;;;;;4972105;28;20038;-61
2022/10/03 09:51:59;;;;;;;5.88;2.33;;;11.30;99.90;;;;;;4969074;28;20045;-61
2022/10/03 09:54:42;;;;;;;7.63;3.30;;;11.30;99.90;;;;;;4971440;28;20027;-60
2022/10/03 09:57:42;;;;;;;5.65;2.67;;;11.40;99.90;;;;;;4971543;28;20034;-60
2022/10/03 10:00:21;;;;;;;9.60;2.83;;;11.40;99.90;;;;;;4964366;28;20493;-61
2022/10/03 10:02:53;;;;;;;7.95;2.53;;;11.40;99.90;;;;;;4970903;28;20046;-59
2022/10/03 10:05:25;;;;;;;12.35;3.20;;;11.30;99.90;;;;;;4970652;28;20019;-61
2022/10/03 10:08:14;;;;;;;4.18;2.63;;;11.40;99.90;;;;;;4970700;28;20093;-58
2022/10/03 10:11:02;;;;;;;10.57;3.50;;;11.50;99.90;;;;;;4983087;28;20050;-60
2022/10/03 10:13:59;;;;;;;4.32;2.25;;;11.40;99.90;;;;;;4970068;28;20035;-60
2022/10/03 10:16:37;;;;;;;9.73;3.33;;;11.50;99.90;;;;;;4953476;28;20027;-60
2022/10/03 10:19:05;;;;;;;4.43;2.40;;;11.70;99.90;;;;;;4971754;28;20145;-59
2022/10/03 10:22:05;;;;;;;8.32;3.47;;;11.80;99.90;;;;;;4971318;28;20023;-59
2022/10/03 10:24:49;;;;;;;6.78;2.40;;;11.90;99.90;;;;;;4970148;28;20023;-59
2022/10/03 10:27:53;;;;;;;3.20;2.20;;;12.00;99.90;;;;;;4970050;28;20589;-59
2022/10/03 10:30:38;;;;;;;6.78;1.98;;;12.10;99.90;;;;;;4970449;28;20027;-61
2022/10/03 10:33:18;;;;;;;7.40;2.08;;;12.10;99.90;;;;;;4969778;28;20031;-59
2022/10/03 10:36:09;;;;;;;6.13;1.70;;;11.90;99.90;;;;;;4983061;28;20018;-60
2022/10/03 10:38:49;;;;;;;6.93;2.00;;;11.90;99.90;;;;;;4969636;28;20026;-59
2022/10/03 10:41:48;;;;;;;6.93;2.22;;;11.80;99.90;;;;;;4968198;28;20603;-60
2022/10/03 10:44:41;;;;;;;5.32;1.98;;;11.90;99.90;;;;;;4967849;28;20149;-59
2022/10/03 10:47:35;;;;;;;5.30;2.03;;;11.90;99.90;;;;;;4983826;28;20050;-61
2022/10/03 10:50:38;;;;;;;5.75;2.63;;;12.00;99.90;;;;;;4982113;28;20576;-59
2022/10/03 10:54:01;;;;;;;6.82;2.92;;;12.30;99.90;;;;;;4967612;28;20473;-61
2022/10/03 10:57:03;;;;;;;4.82;2.20;;;12.40;99.90;;;;;;4908153;29;20605;-62
2022/10/03 10:59:55;;;;;;;6.22;1.92;;;12.50;99.90;;;;;;4908157;29;20032;-60
2022/10/03 11:02:42;;;;;;;7.80;2.38;;;12.60;99.90;;;;;;4966850;28;20022;-59
2022/10/03 11:05:39;;;;;;;5.93;2.45;;;12.60;99.90;;;;;;4968111;28;20477;-59
2022/10/03 11:08:48;;;;;;;7.93;2.58;;;12.50;99.90;;;;;;4970633;28;20073;-58
2022/10/03 11:11:48;;;;;;;8.07;3.13;;;12.40;99.90;;;;;;4970817;28;20027;-59
2022/10/03 11:14:31;;;;;;;5.45;2.60;;;12.20;99.90;;;;;;4969739;28;20042;-59
2022/10/03 11:17:15;;;;;;;6.90;2.55;;;12.10;99.90;;;;;;4969277;28;20708;-59
2022/10/03 11:19:50;;;;;;;8.75;2.60;;;12.00;99.90;;;;;;4983209;28;20058;-59
2022/10/03 11:22:54;;;;;;;5.10;2.15;;;12.00;99.90;;;;;;4968340;28;20379;-60
2022/10/03 11:25:39;;;;;;;4.55;1.55;;;11.90;99.90;;;;;;4930691;28;20079;-60
2022/10/03 11:28:36;;;;;;;7.45;2.88;;;11.90;99.90;;;;;;4981881;28;20057;-60
2022/10/03 11:31:33;;;;;;;4.82;1.92;;;11.90;99.90;;;;;;4983466;28;20559;-59
2022/10/03 11:34:23;;;;;;;4.32;1.58;;;11.90;99.90;;;;;;4984714;28;20081;-59
2022/10/03 11:37:14;;;;;;;5.43;1.90;;;11.90;99.90;;;;;;4969646;28;20062;-59
2022/10/03 11:39:59;;;;;;;4.85;1.85;;;11.90;99.90;;;;;;4969994;28;20110;-59
2022/10/03 11:42:52;;;;;;;3.83;1.40;;;11.80;99.90;;;;;;4985301;28;20605;-59
2022/10/03 11:45:46;;;;;;;5.00;2.00;;;11.80;99.90;;;;;;4970254;28;20035;-59
2022/10/03 11:48:43;;;;;;;8.63;3.30;;;11.70;99.90;;;;;;4970080;28;20043;-59
2022/10/03 11:51:15;;;;;;;7.18;2.28;;;11.70;99.90;;;;;;4970076;28;20034;-60
2022/10/03 11:53:55;;;;;;;5.00;2.63;;;11.70;99.90;;;;;;4970487;28;20030;-59
2022/10/03 11:56:32;;;;;;;5.07;2.35;;;11.70;99.90;;;;;;4983558;28;20027;-59
2022/10/03 11:59:17;;;;;;;10.73;5.40;;;11.70;99.90;;;;;;4970458;28;20045;-59
2022/10/03 12:01:59;;;;;;;6.57;3.00;;;11.60;99.90;;;;;;4988760;28;20035;-59
2022/10/03 12:04:38;;;;;;;5.78;3.30;;;11.50;99.90;;;;;;4974059;28;20058;-60
2022/10/03 12:10:57;;;;;;;4.93;2.38;;;11.40;99.90;;;;;;4974882;28;20401;-60
2022/10/03 12:13:35;;;;;;;4.70;2.42;;;11.30;99.90;;;;;;4974829;28;20587;-59
2022/10/03 12:16:10;;;;;;;12.88;3.70;;;11.30;99.90;;;;;;4974806;28;20552;-59
2022/10/03 12:18:41;;;;;;;6.95;2.90;;;11.30;99.90;;;;;;4974287;28;20033;-59
2022/10/03 12:21:09;;;;;;;8.95;3.50;;;11.30;99.90;;;;;;4974329;28;20030;-59
2022/10/03 12:23:41;;;;;;;9.35;3.90;;;11.30;99.90;;;;;;4981002;28;20054;-59
2022/10/03 12:26:15;;;;;;;7.10;3.72;;;11.40;99.90;;;;;;4993850;28;20080;-59
2022/10/03 12:28:50;;;;;;;12.38;4.20;;;11.40;99.90;;;;;;4992438;28;20037;-59
2022/10/03 12:31:26;;;;;;;13.68;4.38;;;11.40;99.90;;;;;;4977676;28;20067;-59
2022/10/03 12:34:12;;;;;;;14.52;6.07;;;11.40;99.90;;;;;;4992716;28;20085;-59
2022/10/03 12:36:59;;;;;;;13.90;4.90;;;11.50;99.90;;;;;;4992749;28;20026;-60
2022/10/03 12:40:06;;;;;;;8.68;3.95;;;11.50;99.90;;;;;;4993983;28;20062;-59
2022/10/03 12:43:01;;;;;;;8.02;4.18;;;11.50;99.90;;;;;;4993942;28;20019;-59
2022/10/03 12:45:30;;;;;;;6.63;3.17;;;11.50;99.90;;;;;;4993696;28;20064;-59
2022/10/03 12:48:18;;;;;;;7.32;2.92;;;11.50;99.90;;;;;;4992186;28;20065;-59
2022/10/03 12:50:56;;;;;;;12.02;5.30;;;11.50;99.90;;;;;;4993937;28;20030;-59
2022/10/03 12:53:37;;;;;;;12.80;5.78;;;11.50;99.90;;;;;;4991988;28;20037;-58
2022/10/03 12:56:37;;;;;;;14.75;7.18;;;11.50;99.90;;;;;;4993621;28;20557;-59
2022/10/03 12:59:16;;;;;;;12.77;5.45;;;11.60;99.90;;;;;;4957444;28;20078;-59
2022/10/03 13:02:13;;;;;;;9.55;4.32;;;11.60;99.90;;;;;;4993249;28;20092;-59
2022/10/03 13:04:50;;;;;;;12.82;4.18;;;11.60;99.90;;;;;;4993195;28;20489;-59
2022/10/03 13:07:35;;;;;;;8.98;4.00;;;11.60;99.90;;;;;;4993333;28;20026;-60
2022/10/03 13:10:15;;;;;;;8.52;3.50;;;11.60;99.90;;;;;;4993261;28;20070;-59
2022/10/03 13:12:51;;;;;;;10.85;4.65;;;11.60;99.90;;;;;;4992593;28;20026;-59
2022/10/03 13:15:52;;;;;;;14.38;7.05;;;11.70;99.90;;;;;;4993286;28;20670;-59
2022/10/03 13:18:44;;;;;;;10.95;5.82;;;11.70;99.90;;;;;;4932457;29;20231;-59
2022/10/03 13:21:40;;;;;;;12.27;5.55;;;11.70;99.90;;;;;;4974728;28;20049;-58
2022/10/03 13:24:27;;;;;;;12.00;4.75;;;11.70;99.90;;;;;;4993031;28;20450;-59
2022/10/03 13:27:05;;;;;;;12.25;4.78;;;11.80;99.90;;;;;;4992179;28;20069;-59
2022/10/03 13:29:47;;;;;;;13.32;4.53;;;11.80;99.90;;;;;;4975405;28;20026;-59
2022/10/03 13:32:36;;;;;;;14.30;4.88;;;11.80;99.90;;;;;;4953417;29;20046;-59
2022/10/03 13:38:19;;;;;;;11.98;4.15;;;11.90;99.90;;;;;;4953421;29;20082;-60
2022/10/03 13:41:14;;;;;;;11.75;4.07;;;11.90;99.90;;;;;;4953151;29;20732;-60
2022/10/03 13:43:48;;;;;;;10.88;4.25;;;11.90;99.90;;;;;;4953126;29;20095;-59
2022/10/03 13:46:28;;;;;;;11.60;3.45;;;11.90;99.90;;;;;;4953393;29;20023;-60
2022/10/03 13:49:00;;;;;;;11.80;3.60;;;11.90;99.90;;;;;;4953046;29;20067;-60
2022/10/03 13:51:58;;;;;;;7.22;2.20;;;11.90;99.90;;;;;;4953136;28;20379;-60
2022/10/03 13:54:48;;;;;;;13.35;4.35;;;11.90;99.90;;;;;;4953091;29;20102;-60
2022/10/03 13:57:26;;;;;;;11.95;3.72;;;11.80;99.90;;;;;;4952813;29;20416;-60
2022/10/03 14:00:13;;;;;;;9.73;3.88;;;11.70;99.90;;;;;;4953080;29;20035;-60
2022/10/03 14:03:10;;;;;;;9.23;3.60;;;11.70;99.90;;;;;;4952966;29;20495;-59
2022/10/03 14:06:02;;;;;;;8.85;4.13;;;11.70;99.90;;;;;;4952810;29;20616;-61
2022/10/03 14:08:47;;;;;;;12.38;3.85;;;11.70;99.90;;;;;;4967901;28;20139;-59
2022/10/03 14:11:25;;;;;;;8.95;3.72;;;11.70;99.90;;;;;;4971708;28;20034;-59
2022/10/03 14:14:33;;;;;;;8.13;3.50;;;11.70;99.90;;;;;;4972024;28;20027;-60
2022/10/03 14:17:16;;;;;;;11.23;3.50;;;11.60;99.90;;;;;;4972114;28;20023;-59
2022/10/03 14:19:51;;;;;;;11.45;5.53;;;11.70;99.90;;;;;;4986645;28;20023;-58
2022/10/03 14:22:47;;;;;;;12.77;4.63;;;11.60;99.90;;;;;;4971854;28;20529;-59
2022/10/03 14:25:24;;;;;;;10.38;3.95;;;11.60;99.90;;;;;;4971099;28;20525;-58
2022/10/03 14:27:53;;;;;;;11.57;5.70;;;11.60;99.90;;;;;;4970150;28;20133;-58
2022/10/03 14:30:25;;;;;;;13.73;5.70;;;11.60;99.90;;;;;;4969168;28;20065;-58
2022/10/03 14:33:32;;;;;;;13.65;5.38;;;11.60;99.90;;;;;;4971560;28;20026;-60
2022/10/03 14:35:58;;;;;;;18.20;7.57;;;11.60;99.90;;;;;;4949000;28;20049;-60